sensor_id;sensor_type;location;lat;lon;timestamp;P1;durP1;ratioP1;P2;durP2;ratioP2
60038;SDS011;45916;52.734;6.544;2022-10-31T00:02:00;32.88;;;24.33;;
60038;SDS011;45916;52.734;6.544;2022-10-31T00:04:26;25.70;;;22.73;;
60038;SDS011;45916;52.734;6.544;2022-10-31T00:06:51;28.67;;;22.35;;
60038;SDS011;45916;52.734;6.544;2022-10-31T00:09:17;24.90;;;19.13;;
60038;SDS011;45916;52.734;6.544;2022-10-31T00:11:42;25.00;;;19.60;;
60038;SDS011;45916;52.734;6.544;2022-10-31T00:14:08;20.88;;;15.55;;
60038;SDS011;45916;52.734;6.544;2022-10-31T00:16:34;27.35;;;19.73;;
60038;SDS011;45916;52.734;6.544;2022-10-31T00:19:00;25.73;;;19.45;;
60038;SDS011;45916;52.734;6.544;2022-10-31T00:21:28;22.20;;;18.63;;
60038;SDS011;45916;52.734;6.544;2022-10-31T00:23:54;29.55;;;22.60;;
60038;SDS011;45916;52.734;6.544;2022-10-31T00:26:21;27.05;;;21.40;;
60038;SDS011;45916;52.734;6.544;2022-10-31T00:28:47;21.45;;;19.15;;
60038;SDS011;45916;52.734;6.544;2022-10-31T00:31:13;27.35;;;20.48;;
60038;SDS011;45916;52.734;6.544;2022-10-31T00:33:40;24.10;;;19.08;;
60038;SDS011;45916;52.734;6.544;2022-10-31T00:36:07;30.05;;;20.80;;
60038;SDS011;45916;52.734;6.544;2022-10-31T00:38:35;31.27;;;22.77;;
60038;SDS011;45916;52.734;6.544;2022-10-31T00:41:01;31.27;;;23.33;;
60038;SDS011;45916;52.734;6.544;2022-10-31T00:43:26;36.63;;;26.13;;
60038;SDS011;45916;52.734;6.544;2022-10-31T00:45:52;37.10;;;25.92;;
60038;SDS011;45916;52.734;6.544;2022-10-31T00:48:18;32.92;;;25.30;;
60038;SDS011;45916;52.734;6.544;2022-10-31T00:50:43;35.80;;;26.75;;
60038;SDS011;45916;52.734;6.544;2022-10-31T00:53:09;30.15;;;24.35;;
60038;SDS011;45916;52.734;6.544;2022-10-31T00:55:35;30.95;;;25.67;;
60038;SDS011;45916;52.734;6.544;2022-10-31T00:58:00;32.97;;;24.45;;
60038;SDS011;45916;52.734;6.544;2022-10-31T01:00:26;34.75;;;25.80;;
60038;SDS011;45916;52.734;6.544;2022-10-31T01:02:52;30.90;;;24.05;;
60038;SDS011;45916;52.734;6.544;2022-10-31T01:05:18;36.10;;;27.55;;
60038;SDS011;45916;52.734;6.544;2022-10-31T01:07:44;39.33;;;30.05;;
60038;SDS011;45916;52.734;6.544;2022-10-31T01:10:10;42.67;;;32.42;;
60038;SDS011;45916;52.734;6.544;2022-10-31T01:12:37;38.65;;;31.23;;
60038;SDS011;45916;52.734;6.544;2022-10-31T01:15:07;44.40;;;32.38;;
60038;SDS011;45916;52.734;6.544;2022-10-31T01:17:34;41.40;;;32.67;;
60038;SDS011;45916;52.734;6.544;2022-10-31T01:20:00;41.05;;;30.50;;
60038;SDS011;45916;52.734;6.544;2022-10-31T01:22:26;30.92;;;26.30;;
60038;SDS011;45916;52.734;6.544;2022-10-31T01:24:51;29.27;;;24.25;;
60038;SDS011;45916;52.734;6.544;2022-10-31T01:27:17;26.38;;;23.58;;
60038;SDS011;45916;52.734;6.544;2022-10-31T01:29:43;34.38;;;26.50;;
60038;SDS011;45916;52.734;6.544;2022-10-31T01:32:08;32.42;;;25.42;;
60038;SDS011;45916;52.734;6.544;2022-10-31T01:34:34;33.20;;;26.30;;
60038;SDS011;45916;52.734;6.544;2022-10-31T01:36:59;31.17;;;27.42;;
60038;SDS011;45916;52.734;6.544;2022-10-31T01:39:25;26.73;;;22.60;;
60038;SDS011;45916;52.734;6.544;2022-10-31T01:41:51;36.13;;;28.70;;
60038;SDS011;45916;52.734;6.544;2022-10-31T01:46:48;29.20;;;25.42;;
60038;SDS011;45916;52.734;6.544;2022-10-31T01:49:21;37.00;;;30.15;;
60038;SDS011;45916;52.734;6.544;2022-10-31T01:52:03;29.98;;;24.15;;
60038;SDS011;45916;52.734;6.544;2022-10-31T01:54:37;30.83;;;25.00;;
60038;SDS011;45916;52.734;6.544;2022-10-31T01:57:06;26.50;;;21.33;;
60038;SDS011;45916;52.734;6.544;2022-10-31T01:59:35;28.98;;;24.00;;
60038;SDS011;45916;52.734;6.544;2022-10-31T02:02:05;24.73;;;19.23;;
60038;SDS011;45916;52.734;6.544;2022-10-31T02:04:32;21.73;;;18.85;;
60038;SDS011;45916;52.734;6.544;2022-10-31T02:07:00;21.23;;;18.08;;
60038;SDS011;45916;52.734;6.544;2022-10-31T02:09:33;29.77;;;23.52;;
60038;SDS011;45916;52.734;6.544;2022-10-31T02:12:00;26.27;;;22.55;;
60038;SDS011;45916;52.734;6.544;2022-10-31T02:14:26;28.27;;;22.55;;
60038;SDS011;45916;52.734;6.544;2022-10-31T02:16:54;21.08;;;17.02;;
60038;SDS011;45916;52.734;6.544;2022-10-31T02:36:26;30.10;;;25.80;;
60038;SDS011;45916;52.734;6.544;2022-10-31T02:47:32;31.48;;;26.92;;
60038;SDS011;45916;52.734;6.544;2022-10-31T02:50:06;32.40;;;27.85;;
60038;SDS011;45916;52.734;6.544;2022-10-31T02:52:33;28.77;;;22.30;;
60038;SDS011;45916;52.734;6.544;2022-10-31T02:55:12;105.97;;;32.58;;
60038;SDS011;45916;52.734;6.544;2022-10-31T03:00:30;624.83;;;95.65;;
60038;SDS011;45916;52.734;6.544;2022-10-31T03:05:40;36.40;;;27.73;;
60038;SDS011;45916;52.734;6.544;2022-10-31T03:15:53;181.48;;;33.25;;
60038;SDS011;45916;52.734;6.544;2022-10-31T03:18:30;53.78;;;30.85;;
60038;SDS011;45916;52.734;6.544;2022-10-31T03:21:06;29.70;;;25.38;;
60038;SDS011;45916;52.734;6.544;2022-10-31T03:23:43;40.72;;;30.92;;
60038;SDS011;45916;52.734;6.544;2022-10-31T03:26:11;62.28;;;38.08;;
60038;SDS011;45916;52.734;6.544;2022-10-31T03:28:41;77.32;;;32.33;;
60038;SDS011;45916;52.734;6.544;2022-10-31T03:31:12;28.15;;;23.70;;
60038;SDS011;45916;52.734;6.544;2022-10-31T03:33:41;36.95;;;27.77;;
60038;SDS011;45916;52.734;6.544;2022-10-31T03:36:08;41.88;;;26.50;;
60038;SDS011;45916;52.734;6.544;2022-10-31T03:41:05;38.05;;;29.83;;
60038;SDS011;45916;52.734;6.544;2022-10-31T03:43:36;37.30;;;32.35;;
60038;SDS011;45916;52.734;6.544;2022-10-31T03:46:05;36.25;;;25.73;;
60038;SDS011;45916;52.734;6.544;2022-10-31T03:48:31;49.50;;;31.30;;
60038;SDS011;45916;52.734;6.544;2022-10-31T03:51:04;39.53;;;33.50;;
60038;SDS011;45916;52.734;6.544;2022-10-31T03:53:39;286.10;;;59.70;;
60038;SDS011;45916;52.734;6.544;2022-10-31T03:56:34;42.50;;;35.55;;
60038;SDS011;45916;52.734;6.544;2022-10-31T03:59:32;49.08;;;37.72;;
60038;SDS011;45916;52.734;6.544;2022-10-31T04:02:03;49.47;;;37.17;;
60038;SDS011;45916;52.734;6.544;2022-10-31T04:04:32;45.15;;;36.25;;
60038;SDS011;45916;52.734;6.544;2022-10-31T04:06:59;48.35;;;37.55;;
60038;SDS011;45916;52.734;6.544;2022-10-31T04:09:27;39.83;;;29.02;;
60038;SDS011;45916;52.734;6.544;2022-10-31T04:11:55;35.10;;;28.50;;
60038;SDS011;45916;52.734;6.544;2022-10-31T04:14:24;200.55;;;26.60;;
60038;SDS011;45916;52.734;6.544;2022-10-31T04:16:53;36.05;;;28.77;;
60038;SDS011;45916;52.734;6.544;2022-10-31T04:19:19;39.95;;;32.55;;
60038;SDS011;45916;52.734;6.544;2022-10-31T04:21:45;38.50;;;19.95;;
60038;SDS011;45916;52.734;6.544;2022-10-31T04:24:11;31.10;;;25.20;;
60038;SDS011;45916;52.734;6.544;2022-10-31T04:26:36;17.55;;;14.40;;
60038;SDS011;45916;52.734;6.544;2022-10-31T04:29:02;13.85;;;12.43;;
60038;SDS011;45916;52.734;6.544;2022-10-31T04:31:28;41.47;;;31.00;;
60038;SDS011;45916;52.734;6.544;2022-10-31T04:33:56;163.00;;;24.25;;
60038;SDS011;45916;52.734;6.544;2022-10-31T04:36:22;181.55;;;37.92;;
60038;SDS011;45916;52.734;6.544;2022-10-31T04:38:47;216.30;;;41.22;;
60038;SDS011;45916;52.734;6.544;2022-10-31T04:41:13;166.65;;;32.85;;
60038;SDS011;45916;52.734;6.544;2022-10-31T04:43:39;31.27;;;26.38;;
60038;SDS011;45916;52.734;6.544;2022-10-31T04:46:04;137.38;;;48.90;;
60038;SDS011;45916;52.734;6.544;2022-10-31T04:48:30;29.67;;;22.60;;
60038;SDS011;45916;52.734;6.544;2022-10-31T04:50:59;123.60;;;45.05;;
60038;SDS011;45916;52.734;6.544;2022-10-31T04:53:26;42.25;;;32.20;;
60038;SDS011;45916;52.734;6.544;2022-10-31T04:55:51;40.58;;;22.63;;
60038;SDS011;45916;52.734;6.544;2022-10-31T04:58:17;282.80;;;54.25;;
60038;SDS011;45916;52.734;6.544;2022-10-31T05:00:43;114.53;;;30.33;;
60038;SDS011;45916;52.734;6.544;2022-10-31T05:03:08;48.95;;;35.08;;
60038;SDS011;45916;52.734;6.544;2022-10-31T05:05:34;55.42;;;39.85;;
60038;SDS011;45916;52.734;6.544;2022-10-31T05:08:00;64.18;;;34.35;;
60038;SDS011;45916;52.734;6.544;2022-10-31T05:10:26;38.35;;;30.58;;
60038;SDS011;45916;52.734;6.544;2022-10-31T05:12:57;46.20;;;32.07;;
60038;SDS011;45916;52.734;6.544;2022-10-31T05:15:26;60.97;;;21.98;;
60038;SDS011;45916;52.734;6.544;2022-10-31T05:17:52;39.95;;;17.65;;
60038;SDS011;45916;52.734;6.544;2022-10-31T05:20:19;541.40;;;72.93;;
60038;SDS011;45916;52.734;6.544;2022-10-31T05:22:46;211.00;;;43.67;;
60038;SDS011;45916;52.734;6.544;2022-10-31T05:25:14;309.48;;;56.58;;
60038;SDS011;45916;52.734;6.544;2022-10-31T05:27:41;333.95;;;57.13;;
60038;SDS011;45916;52.734;6.544;2022-10-31T05:30:08;159.57;;;42.25;;
60038;SDS011;45916;52.734;6.544;2022-10-31T05:32:45;128.10;;;47.13;;
60038;SDS011;45916;52.734;6.544;2022-10-31T05:35:16;118.60;;;36.05;;
60038;SDS011;45916;52.734;6.544;2022-10-31T05:37:43;210.50;;;41.33;;
60038;SDS011;45916;52.734;6.544;2022-10-31T05:40:10;187.38;;;36.72;;
60038;SDS011;45916;52.734;6.544;2022-10-31T05:42:37;156.48;;;31.65;;
60038;SDS011;45916;52.734;6.544;2022-10-31T05:45:05;169.57;;;33.72;;
60038;SDS011;45916;52.734;6.544;2022-10-31T05:47:35;75.68;;;28.23;;
60038;SDS011;45916;52.734;6.544;2022-10-31T05:50:00;33.60;;;27.77;;
60038;SDS011;45916;52.734;6.544;2022-10-31T05:52:26;38.03;;;26.88;;
60038;SDS011;45916;52.734;6.544;2022-10-31T05:54:51;49.85;;;24.63;;
60038;SDS011;45916;52.734;6.544;2022-10-31T05:57:17;494.75;;;77.70;;
60038;SDS011;45916;52.734;6.544;2022-10-31T05:59:43;21.65;;;18.58;;
60038;SDS011;45916;52.734;6.544;2022-10-31T06:02:08;27.92;;;20.83;;
60038;SDS011;45916;52.734;6.544;2022-10-31T06:04:34;15.73;;;14.13;;
60038;SDS011;45916;52.734;6.544;2022-10-31T06:07:00;17.50;;;15.73;;
60038;SDS011;45916;52.734;6.544;2022-10-31T06:09:25;106.78;;;27.20;;
60038;SDS011;45916;52.734;6.544;2022-10-31T06:11:51;144.45;;;31.60;;
60038;SDS011;45916;52.734;6.544;2022-10-31T06:14:17;281.00;;;59.33;;
60038;SDS011;45916;52.734;6.544;2022-10-31T06:16:42;56.75;;;22.85;;
60038;SDS011;45916;52.734;6.544;2022-10-31T06:19:08;220.57;;;47.80;;
60038;SDS011;45916;52.734;6.544;2022-10-31T06:21:34;49.75;;;22.58;;
60038;SDS011;45916;52.734;6.544;2022-10-31T06:23:59;31.00;;;18.20;;
60038;SDS011;45916;52.734;6.544;2022-10-31T06:26:25;48.45;;;18.10;;
60038;SDS011;45916;52.734;6.544;2022-10-31T06:28:51;21.02;;;16.27;;
60038;SDS011;45916;52.734;6.544;2022-10-31T06:31:16;40.92;;;20.95;;
60038;SDS011;45916;52.734;6.544;2022-10-31T06:33:42;191.23;;;33.25;;
60038;SDS011;45916;52.734;6.544;2022-10-31T06:36:08;252.77;;;49.90;;
60038;SDS011;45916;52.734;6.544;2022-10-31T06:38:34;199.30;;;34.13;;
60038;SDS011;45916;52.734;6.544;2022-10-31T06:41:06;194.45;;;30.90;;
60038;SDS011;45916;52.734;6.544;2022-10-31T06:43:32;193.48;;;36.35;;
60038;SDS011;45916;52.734;6.544;2022-10-31T06:46:01;150.60;;;29.33;;
60038;SDS011;45916;52.734;6.544;2022-10-31T06:48:28;120.03;;;28.88;;
60038;SDS011;45916;52.734;6.544;2022-10-31T06:50:57;116.55;;;33.08;;
60038;SDS011;45916;52.734;6.544;2022-10-31T06:53:24;89.35;;;26.05;;
60038;SDS011;45916;52.734;6.544;2022-10-31T06:55:49;71.95;;;23.25;;
60038;SDS011;45916;52.734;6.544;2022-10-31T06:58:15;59.47;;;26.02;;
60038;SDS011;45916;52.734;6.544;2022-10-31T07:00:40;62.65;;;31.10;;
60038;SDS011;45916;52.734;6.544;2022-10-31T07:03:09;55.30;;;26.70;;
60038;SDS011;45916;52.734;6.544;2022-10-31T07:05:36;30.27;;;21.08;;
60038;SDS011;45916;52.734;6.544;2022-10-31T07:08:03;34.53;;;25.70;;
60038;SDS011;45916;52.734;6.544;2022-10-31T07:10:32;50.50;;;25.70;;
60038;SDS011;45916;52.734;6.544;2022-10-31T07:13:00;87.72;;;33.58;;
60038;SDS011;45916;52.734;6.544;2022-10-31T07:15:28;81.60;;;36.80;;
60038;SDS011;45916;52.734;6.544;2022-10-31T07:18:05;65.57;;;36.30;;
60038;SDS011;45916;52.734;6.544;2022-10-31T07:20:32;48.72;;;29.85;;
60038;SDS011;45916;52.734;6.544;2022-10-31T07:22:58;124.00;;;56.40;;
60038;SDS011;45916;52.734;6.544;2022-10-31T07:25:24;42.47;;;28.55;;
60038;SDS011;45916;52.734;6.544;2022-10-31T07:27:50;38.05;;;28.00;;
60038;SDS011;45916;52.734;6.544;2022-10-31T07:30:16;30.33;;;23.98;;
60038;SDS011;45916;52.734;6.544;2022-10-31T07:35:14;33.95;;;26.70;;
60038;SDS011;45916;52.734;6.544;2022-10-31T07:37:42;54.95;;;31.42;;
60038;SDS011;45916;52.734;6.544;2022-10-31T07:40:08;51.58;;;29.27;;
60038;SDS011;45916;52.734;6.544;2022-10-31T07:42:38;75.50;;;36.85;;
60038;SDS011;45916;52.734;6.544;2022-10-31T07:45:05;99.70;;;42.03;;
60038;SDS011;45916;52.734;6.544;2022-10-31T07:50:10;96.57;;;35.47;;
60038;SDS011;45916;52.734;6.544;2022-10-31T07:55:03;152.70;;;51.03;;
60038;SDS011;45916;52.734;6.544;2022-10-31T07:57:30;78.95;;;40.67;;
60038;SDS011;45916;52.734;6.544;2022-10-31T07:59:56;73.13;;;39.45;;
60038;SDS011;45916;52.734;6.544;2022-10-31T08:02:21;60.00;;;41.22;;
60038;SDS011;45916;52.734;6.544;2022-10-31T08:04:47;52.53;;;37.85;;
60038;SDS011;45916;52.734;6.544;2022-10-31T08:07:13;51.35;;;42.47;;
60038;SDS011;45916;52.734;6.544;2022-10-31T08:09:39;49.58;;;42.28;;
60038;SDS011;45916;52.734;6.544;2022-10-31T08:12:05;53.20;;;43.05;;
60038;SDS011;45916;52.734;6.544;2022-10-31T08:14:31;45.03;;;37.50;;
60038;SDS011;45916;52.734;6.544;2022-10-31T08:16:56;57.17;;;47.55;;
60038;SDS011;45916;52.734;6.544;2022-10-31T08:19:22;55.03;;;43.55;;
60038;SDS011;45916;52.734;6.544;2022-10-31T08:21:51;45.85;;;37.67;;
60038;SDS011;45916;52.734;6.544;2022-10-31T08:24:17;41.40;;;37.08;;
60038;SDS011;45916;52.734;6.544;2022-10-31T08:26:43;39.95;;;35.25;;
60038;SDS011;45916;52.734;6.544;2022-10-31T08:29:09;46.60;;;37.85;;
60038;SDS011;45916;52.734;6.544;2022-10-31T08:31:35;41.70;;;37.22;;
60038;SDS011;45916;52.734;6.544;2022-10-31T08:34:00;40.75;;;32.70;;
60038;SDS011;45916;52.734;6.544;2022-10-31T08:36:27;39.33;;;33.40;;
60038;SDS011;45916;52.734;6.544;2022-10-31T08:38:53;32.78;;;29.25;;
60038;SDS011;45916;52.734;6.544;2022-10-31T08:41:19;36.30;;;32.22;;
60038;SDS011;45916;52.734;6.544;2022-10-31T08:43:44;45.45;;;38.35;;
60038;SDS011;45916;52.734;6.544;2022-10-31T08:46:10;40.47;;;35.42;;
60038;SDS011;45916;52.734;6.544;2022-10-31T08:48:36;31.40;;;28.17;;
60038;SDS011;45916;52.734;6.544;2022-10-31T08:51:02;38.20;;;33.33;;
60038;SDS011;45916;52.734;6.544;2022-10-31T08:53:27;39.88;;;31.63;;
60038;SDS011;45916;52.734;6.544;2022-10-31T08:55:54;33.78;;;30.17;;
60038;SDS011;45916;52.734;6.544;2022-10-31T08:58:21;37.38;;;33.35;;
60038;SDS011;45916;52.734;6.544;2022-10-31T09:00:48;40.17;;;33.40;;
60038;SDS011;45916;52.734;6.544;2022-10-31T09:03:20;33.75;;;29.58;;
60038;SDS011;45916;52.734;6.544;2022-10-31T09:05:46;32.70;;;29.15;;
60038;SDS011;45916;52.734;6.544;2022-10-31T09:08:12;32.03;;;28.83;;
60038;SDS011;45916;52.734;6.544;2022-10-31T09:10:39;30.65;;;27.40;;
60038;SDS011;45916;52.734;6.544;2022-10-31T09:13:06;30.95;;;27.65;;
60038;SDS011;45916;52.734;6.544;2022-10-31T09:15:45;30.25;;;26.27;;
60038;SDS011;45916;52.734;6.544;2022-10-31T09:18:12;26.60;;;23.73;;
60038;SDS011;45916;52.734;6.544;2022-10-31T09:20:40;27.57;;;24.60;;
60038;SDS011;45916;52.734;6.544;2022-10-31T09:25:37;26.90;;;24.30;;
60038;SDS011;45916;52.734;6.544;2022-10-31T09:28:03;26.25;;;23.65;;
60038;SDS011;45916;52.734;6.544;2022-10-31T09:30:31;27.23;;;24.42;;
60038;SDS011;45916;52.734;6.544;2022-10-31T09:35:25;27.02;;;23.10;;
60038;SDS011;45916;52.734;6.544;2022-10-31T09:37:55;24.85;;;22.05;;
60038;SDS011;45916;52.734;6.544;2022-10-31T09:40:28;25.95;;;23.25;;
60038;SDS011;45916;52.734;6.544;2022-10-31T09:48:31;24.35;;;21.85;;
60038;SDS011;45916;52.734;6.544;2022-10-31T09:56:18;27.70;;;24.70;;
60038;SDS011;45916;52.734;6.544;2022-10-31T09:58:47;25.63;;;22.92;;
60038;SDS011;45916;52.734;6.544;2022-10-31T10:03:57;26.55;;;23.90;;
60038;SDS011;45916;52.734;6.544;2022-10-31T10:06:35;25.73;;;23.30;;
60038;SDS011;45916;52.734;6.544;2022-10-31T10:09:06;25.75;;;23.00;;
60038;SDS011;45916;52.734;6.544;2022-10-31T10:11:52;25.33;;;22.75;;
60038;SDS011;45916;52.734;6.544;2022-10-31T10:17:50;24.17;;;21.33;;
60038;SDS011;45916;52.734;6.544;2022-10-31T10:25:28;23.88;;;20.48;;
60038;SDS011;45916;52.734;6.544;2022-10-31T10:30:47;21.15;;;18.95;;
60038;SDS011;45916;52.734;6.544;2022-10-31T10:36:11;22.40;;;20.02;;
60038;SDS011;45916;52.734;6.544;2022-10-31T10:41:16;24.23;;;20.73;;
60038;SDS011;45916;52.734;6.544;2022-10-31T10:43:44;24.88;;;21.85;;
60038;SDS011;45916;52.734;6.544;2022-10-31T10:47:10;26.48;;;23.77;;
60038;SDS011;45916;52.734;6.544;2022-10-31T10:49:36;27.40;;;24.45;;
60038;SDS011;45916;52.734;6.544;2022-10-31T10:52:10;25.27;;;22.60;;
60038;SDS011;45916;52.734;6.544;2022-10-31T11:00:30;24.73;;;22.13;;
60038;SDS011;45916;52.734;6.544;2022-10-31T11:02:57;26.75;;;22.77;;
60038;SDS011;45916;52.734;6.544;2022-10-31T11:07:55;24.45;;;21.85;;
60038;SDS011;45916;52.734;6.544;2022-10-31T11:10:21;24.73;;;22.15;;
60038;SDS011;45916;52.734;6.544;2022-10-31T11:15:53;22.17;;;18.42;;
60038;SDS011;45916;52.734;6.544;2022-10-31T11:18:27;21.33;;;18.15;;
60038;SDS011;45916;52.734;6.544;2022-10-31T11:20:56;22.98;;;17.67;;
60038;SDS011;45916;52.734;6.544;2022-10-31T11:23:25;23.50;;;17.75;;
60038;SDS011;45916;52.734;6.544;2022-10-31T11:28:21;18.10;;;14.63;;
60038;SDS011;45916;52.734;6.544;2022-10-31T11:30:48;19.90;;;16.42;;
60038;SDS011;45916;52.734;6.544;2022-10-31T11:33:32;20.63;;;15.90;;
60038;SDS011;45916;52.734;6.544;2022-10-31T11:36:20;18.88;;;15.35;;
60038;SDS011;45916;52.734;6.544;2022-10-31T11:38:49;20.13;;;16.42;;
60038;SDS011;45916;52.734;6.544;2022-10-31T11:41:16;21.83;;;16.95;;
60038;SDS011;45916;52.734;6.544;2022-10-31T11:43:46;22.52;;;17.25;;
60038;SDS011;45916;52.734;6.544;2022-10-31T11:46:30;18.85;;;16.00;;
60038;SDS011;45916;52.734;6.544;2022-10-31T11:49:01;21.85;;;17.45;;
60038;SDS011;45916;52.734;6.544;2022-10-31T11:51:29;19.58;;;16.73;;
60038;SDS011;45916;52.734;6.544;2022-10-31T11:53:58;20.42;;;14.52;;
60038;SDS011;45916;52.734;6.544;2022-10-31T11:56:27;19.58;;;14.80;;
60038;SDS011;45916;52.734;6.544;2022-10-31T11:59:03;21.30;;;15.80;;
60038;SDS011;45916;52.734;6.544;2022-10-31T12:01:32;19.85;;;15.40;;
60038;SDS011;45916;52.734;6.544;2022-10-31T12:06:24;19.77;;;14.82;;
60038;SDS011;45916;52.734;6.544;2022-10-31T12:08:56;18.80;;;14.40;;
60038;SDS011;45916;52.734;6.544;2022-10-31T12:14:06;18.90;;;14.38;;
60038;SDS011;45916;52.734;6.544;2022-10-31T12:16:39;19.25;;;13.85;;
60038;SDS011;45916;52.734;6.544;2022-10-31T12:19:24;16.17;;;13.23;;
60038;SDS011;45916;52.734;6.544;2022-10-31T12:22:08;15.27;;;12.48;;
60038;SDS011;45916;52.734;6.544;2022-10-31T12:30:30;16.80;;;12.82;;
60038;SDS011;45916;52.734;6.544;2022-10-31T12:58:40;22.23;;;13.82;;
60038;SDS011;45916;52.734;6.544;2022-10-31T13:01:12;17.58;;;13.27;;
60038;SDS011;45916;52.734;6.544;2022-10-31T13:03:44;17.70;;;12.32;;
60038;SDS011;45916;52.734;6.544;2022-10-31T13:06:36;14.70;;;10.38;;
60038;SDS011;45916;52.734;6.544;2022-10-31T13:09:06;15.88;;;10.90;;
60038;SDS011;45916;52.734;6.544;2022-10-31T13:11:48;18.75;;;12.25;;
60038;SDS011;45916;52.734;6.544;2022-10-31T13:16:49;15.00;;;10.18;;
60038;SDS011;45916;52.734;6.544;2022-10-31T13:19:17;14.13;;;10.77;;
60038;SDS011;45916;52.734;6.544;2022-10-31T13:24:14;16.75;;;11.23;;
60038;SDS011;45916;52.734;6.544;2022-10-31T13:26:47;15.75;;;11.40;;
60038;SDS011;45916;52.734;6.544;2022-10-31T13:31:42;18.73;;;11.73;;
60038;SDS011;45916;52.734;6.544;2022-10-31T13:34:10;16.30;;;11.25;;
60038;SDS011;45916;52.734;6.544;2022-10-31T13:42:37;16.40;;;12.00;;
60038;SDS011;45916;52.734;6.544;2022-10-31T13:45:19;15.93;;;11.70;;
60038;SDS011;45916;52.734;6.544;2022-10-31T13:51:01;17.25;;;11.65;;
60038;SDS011;45916;52.734;6.544;2022-10-31T14:01:26;14.68;;;12.63;;
60038;SDS011;45916;52.734;6.544;2022-10-31T14:07:26;15.18;;;10.38;;
60038;SDS011;45916;52.734;6.544;2022-10-31T14:11:50;14.07;;;9.82;;
60038;SDS011;45916;52.734;6.544;2022-10-31T14:14:17;14.73;;;11.43;;
60038;SDS011;45916;52.734;6.544;2022-10-31T14:16:44;14.43;;;11.05;;
60038;SDS011;45916;52.734;6.544;2022-10-31T14:19:15;14.98;;;11.43;;
60038;SDS011;45916;52.734;6.544;2022-10-31T14:21:46;17.77;;;12.27;;
60038;SDS011;45916;52.734;6.544;2022-10-31T14:26:52;16.70;;;12.50;;
60038;SDS011;45916;52.734;6.544;2022-10-31T14:31:54;17.67;;;13.63;;
60038;SDS011;45916;52.734;6.544;2022-10-31T14:34:37;16.08;;;12.55;;
60038;SDS011;45916;52.734;6.544;2022-10-31T14:45:40;15.80;;;12.68;;
60038;SDS011;45916;52.734;6.544;2022-10-31T14:51:09;17.73;;;12.35;;
60038;SDS011;45916;52.734;6.544;2022-10-31T14:53:48;17.50;;;11.73;;
60038;SDS011;45916;52.734;6.544;2022-10-31T14:56:29;18.90;;;13.02;;
60038;SDS011;45916;52.734;6.544;2022-10-31T14:58:59;17.23;;;12.35;;
60038;SDS011;45916;52.734;6.544;2022-10-31T15:01:29;14.38;;;11.35;;
60038;SDS011;45916;52.734;6.544;2022-10-31T15:03:58;17.58;;;13.40;;
60038;SDS011;45916;52.734;6.544;2022-10-31T15:06:30;18.25;;;13.05;;
60038;SDS011;45916;52.734;6.544;2022-10-31T15:09:04;18.75;;;12.48;;
60038;SDS011;45916;52.734;6.544;2022-10-31T15:11:35;15.48;;;12.52;;
60038;SDS011;45916;52.734;6.544;2022-10-31T15:14:05;19.02;;;13.48;;
60038;SDS011;45916;52.734;6.544;2022-10-31T15:16:47;17.58;;;13.48;;
60038;SDS011;45916;52.734;6.544;2022-10-31T15:19:16;17.17;;;12.00;;
60038;SDS011;45916;52.734;6.544;2022-10-31T15:21:50;15.82;;;12.65;;
60038;SDS011;45916;52.734;6.544;2022-10-31T15:26:51;18.90;;;13.35;;
60038;SDS011;45916;52.734;6.544;2022-10-31T15:29:19;19.05;;;13.48;;
60038;SDS011;45916;52.734;6.544;2022-10-31T15:34:52;17.42;;;12.75;;
60038;SDS011;45916;52.734;6.544;2022-10-31T15:37:19;16.67;;;13.52;;
60038;SDS011;45916;52.734;6.544;2022-10-31T15:39:47;21.80;;;13.73;;
60038;SDS011;45916;52.734;6.544;2022-10-31T15:42:17;19.23;;;14.02;;
60038;SDS011;45916;52.734;6.544;2022-10-31T15:44:46;22.40;;;14.45;;
60038;SDS011;45916;52.734;6.544;2022-10-31T15:47:22;19.83;;;14.05;;
60038;SDS011;45916;52.734;6.544;2022-10-31T15:49:55;20.48;;;14.18;;
60038;SDS011;45916;52.734;6.544;2022-10-31T15:54:55;23.35;;;16.23;;
60038;SDS011;45916;52.734;6.544;2022-10-31T15:57:24;23.33;;;16.10;;
60038;SDS011;45916;52.734;6.544;2022-10-31T15:59:54;20.38;;;15.25;;
60038;SDS011;45916;52.734;6.544;2022-10-31T16:02:24;22.13;;;15.25;;
60038;SDS011;45916;52.734;6.544;2022-10-31T16:04:58;23.52;;;16.38;;
60038;SDS011;45916;52.734;6.544;2022-10-31T16:07:31;22.92;;;15.57;;
60038;SDS011;45916;52.734;6.544;2022-10-31T16:09:57;21.92;;;15.35;;
60038;SDS011;45916;52.734;6.544;2022-10-31T16:12:25;25.13;;;17.38;;
60038;SDS011;45916;52.734;6.544;2022-10-31T16:15:13;20.42;;;15.75;;
60038;SDS011;45916;52.734;6.544;2022-10-31T16:17:41;18.73;;;15.27;;
60038;SDS011;45916;52.734;6.544;2022-10-31T16:20:25;22.65;;;17.15;;
60038;SDS011;45916;52.734;6.544;2022-10-31T16:22:53;22.70;;;16.58;;
60038;SDS011;45916;52.734;6.544;2022-10-31T16:25:33;23.13;;;17.48;;
60038;SDS011;45916;52.734;6.544;2022-10-31T16:28:04;21.20;;;16.60;;
60038;SDS011;45916;52.734;6.544;2022-10-31T16:30:40;21.63;;;16.80;;
60038;SDS011;45916;52.734;6.544;2022-10-31T16:33:20;22.30;;;17.35;;
60038;SDS011;45916;52.734;6.544;2022-10-31T16:35:49;21.77;;;17.98;;
60038;SDS011;45916;52.734;6.544;2022-10-31T16:38:15;23.85;;;18.45;;
60038;SDS011;45916;52.734;6.544;2022-10-31T16:40:41;28.50;;;20.00;;
60038;SDS011;45916;52.734;6.544;2022-10-31T16:43:09;23.10;;;18.88;;
60038;SDS011;45916;52.734;6.544;2022-10-31T16:45:37;26.67;;;20.50;;
60038;SDS011;45916;52.734;6.544;2022-10-31T16:48:10;29.45;;;20.10;;
60038;SDS011;45916;52.734;6.544;2022-10-31T16:50:47;28.02;;;20.60;;
60038;SDS011;45916;52.734;6.544;2022-10-31T16:53:14;30.27;;;22.17;;
60038;SDS011;45916;52.734;6.544;2022-10-31T16:55:45;26.52;;;21.10;;
60038;SDS011;45916;52.734;6.544;2022-10-31T16:58:20;27.88;;;21.30;;
60038;SDS011;45916;52.734;6.544;2022-10-31T17:00:49;30.15;;;21.80;;
60038;SDS011;45916;52.734;6.544;2022-10-31T17:03:15;26.52;;;21.50;;
60038;SDS011;45916;52.734;6.544;2022-10-31T17:05:41;28.25;;;21.63;;
60038;SDS011;45916;52.734;6.544;2022-10-31T17:08:07;26.13;;;22.58;;
60038;SDS011;45916;52.734;6.544;2022-10-31T17:10:33;27.77;;;22.73;;
60038;SDS011;45916;52.734;6.544;2022-10-31T17:12:59;28.95;;;22.75;;
60038;SDS011;45916;52.734;6.544;2022-10-31T17:15:28;30.40;;;23.10;;
60038;SDS011;45916;52.734;6.544;2022-10-31T17:17:57;30.40;;;22.80;;
60038;SDS011;45916;52.734;6.544;2022-10-31T17:22:50;33.00;;;23.80;;
60038;SDS011;45916;52.734;6.544;2022-10-31T17:25:17;28.52;;;24.35;;
60038;SDS011;45916;52.734;6.544;2022-10-31T17:27:47;31.17;;;23.13;;
60038;SDS011;45916;52.734;6.544;2022-10-31T17:30:14;35.45;;;26.33;;
60038;SDS011;45916;52.734;6.544;2022-10-31T17:32:40;26.77;;;23.73;;
60038;SDS011;45916;52.734;6.544;2022-10-31T17:35:09;33.22;;;24.58;;
60038;SDS011;45916;52.734;6.544;2022-10-31T17:37:36;33.45;;;24.88;;
60038;SDS011;45916;52.734;6.544;2022-10-31T17:40:02;32.05;;;24.63;;
60038;SDS011;45916;52.734;6.544;2022-10-31T17:42:29;31.98;;;24.45;;
60038;SDS011;45916;52.734;6.544;2022-10-31T17:44:55;33.97;;;26.95;;
60038;SDS011;45916;52.734;6.544;2022-10-31T17:47:20;31.00;;;25.52;;